Century Pearl — 3ERP4 — position and weather

sailwx.info

Track history (hours):
 
Tides and Currents Weather Stations Pressure Air Temp Water Temp Dewpoint Dewpoint Depression Visibility Wind Speed Wind Dir Waves Ship Positions

Century Pearl

Last reported at 2018-Apr-18 12:31 UTC. Time now 2018-Apr-22 16:17 UTC.
Position N 33°42' E 136°25'.

Length 137 m; draft 7.8 m.

Type: Cargo ship. MMSI: 370126000.

Date/timePositionNaut miles runAvg speedWind from/ knotsBaromVisibWave heightAir tempDewpointWater temp
2018-Apr-18 12:31N 33°42' E 136°25'110.8
2018-Apr-18 12:25N 33°43' E 136°25'1410.2
2018-Apr-18 11:04N 33°53' E 136°37'110.1
2018-Apr-18 10:55N 33°54' E 136°38'5 9.9
2018-Apr-18 10:26N 33°57' E 136°42'5 9.7
2018-Apr-18 09:58N 34°01' E 136°46'36 8.8
2018-Apr-18 05:54N 34°35' E 136°58'5 9.9
2018-Apr-18 05:25N 34°38' E 136°53'410.5
2018-Apr-18 05:00N 34°41' E 136°49'610.8
2018-Apr-18 04:29N 34°46' E 136°47'510.8
2018-Apr-18 04:00N 34°51' E 136°46'510.8
2018-Apr-18 03:30N 34°56' E 136°47'610.9
2018-Apr-18 03:00N 35°01' E 136°50'2 4.9
2018-Apr-18 02:30N 35°03' E 136°53'0 0.0
2018-Apr-18 01:56N 35°03' E 136°53'0 0.0
2018-Apr-18 01:26N 35°03' E 136°53'0 0.0
2018-Apr-18 00:56N 35°03' E 136°53'0 0.0
2018-Apr-18 00:29N 35°03' E 136°53'0 0.0
2018-Apr-17 23:56N 35°03' E 136°53'0 0.0
2018-Apr-17 23:29N 35°03' E 136°53'0 0.0
2018-Apr-17 22:56N 35°03' E 136°53'0 0.0
2018-Apr-17 22:20N 35°03' E 136°53'0 0.0
2018-Apr-17 21:56N 35°03' E 136°53'0 0.0
2018-Apr-17 21:26N 35°03' E 136°53'0 0.0
2018-Apr-17 20:50N 35°03' E 136°53'0 0.0
2018-Apr-17 20:26N 35°03' E 136°53'0 0.0
2018-Apr-17 19:56N 35°03' E 136°53'0 0.0
2018-Apr-17 19:26N 35°03' E 136°53'0 0.0
2018-Apr-17 18:56N 35°03' E 136°53'0 0.0
2018-Apr-17 18:26N 35°03' E 136°53'0 0.0
2018-Apr-17 17:56N 35°03' E 136°53'0 0.0
2018-Apr-17 17:26N 35°03' E 136°53'0 0.0
2018-Apr-17 16:56N 35°03' E 136°53'0 0.0
2018-Apr-17 16:26N 35°03' E 136°53'0 0.0
2018-Apr-17 15:56N 35°03' E 136°53'0 0.0
2018-Apr-17 15:26N 35°03' E 136°53'0 0.0
2018-Apr-17 14:56N 35°03' E 136°53'0 0.0
2018-Apr-17 14:26N 35°03' E 136°53'0 0.0
2018-Apr-17 13:59N 35°03' E 136°53'0 0.0
2018-Apr-17 13:26N 35°03' E 136°53'0 0.0
2018-Apr-17 12:56N 35°03' E 136°53'0 0.0
2018-Apr-17 12:26N 35°03' E 136°53'0 0.0
2018-Apr-17 11:50N 35°03' E 136°53'0 0.0
2018-Apr-17 11:26N 35°03' E 136°53'0 0.0
2018-Apr-17 10:32N 35°03' E 136°53'0 0.0
2018-Apr-17 10:26N 35°03' E 136°53'0 0.0
2018-Apr-17 09:56N 35°03' E 136°53'0 0.0
2018-Apr-17 09:29N 35°03' E 136°53'0 0.0
2018-Apr-17 08:59N 35°03' E 136°53'0 0.0
2018-Apr-17 08:26N 35°03' E 136°53'0 0.0
2018-Apr-17 07:56N 35°03' E 136°53'0 0.0
2018-Apr-17 07:26N 35°03' E 136°53'0 0.0
2018-Apr-17 06:56N 35°03' E 136°53'0 0.0
2018-Apr-17 06:26N 35°03' E 136°53'0 0.0
2018-Apr-17 05:56N 35°03' E 136°53'0 0.0
2018-Apr-17 05:26N 35°03' E 136°53'0 0.0
2018-Apr-17 04:59N 35°03' E 136°53'0 0.0
2018-Apr-17 04:26N 35°03' E 136°53'0 0.0
2018-Apr-17 03:56N 35°03' E 136°53'0 0.0
2018-Apr-17 03:29N 35°03' E 136°53'0 0.0
2018-Apr-17 02:56N 35°03' E 136°53'0 0.0
2018-Apr-17 02:26N 35°03' E 136°53'0 0.0
2018-Apr-17 01:59N 35°03' E 136°53'0 0.0
2018-Apr-17 01:26N 35°03' E 136°53'0 0.0
2018-Apr-17 00:56N 35°03' E 136°53'0 0.0
2018-Apr-17 00:26N 35°03' E 136°53'0 0.0
2018-Apr-16 23:56N 35°03' E 136°53'0 0.0
2018-Apr-16 23:26N 35°03' E 136°53'0 0.0
2018-Apr-16 22:56N 35°03' E 136°53'0 0.0
2018-Apr-16 22:26N 35°03' E 136°53'0 0.0
2018-Apr-16 21:56N 35°03' E 136°53'0 0.0
2018-Apr-16 21:26N 35°03' E 136°53'0 0.0
2018-Apr-16 20:56N 35°03' E 136°53'0 0.0
2018-Apr-16 20:26N 35°03' E 136°53'0 0.0
2018-Apr-16 19:56N 35°03' E 136°53'0 0.0
2018-Apr-16 19:26N 35°03' E 136°53'0 0.0
2018-Apr-16 18:56N 35°03' E 136°53'0 0.0
2018-Apr-16 18:26N 35°03' E 136°53'0 0.0
2018-Apr-16 17:56N 35°03' E 136°53'0 0.0
2018-Apr-16 17:26N 35°03' E 136°53'0 0.0
2018-Apr-16 16:56N 35°03' E 136°53'0 0.0
2018-Apr-16 16:26N 35°03' E 136°53'0 0.0
2018-Apr-16 15:56N 35°03' E 136°53'0 0.0
2018-Apr-16 15:26N 35°03' E 136°53'0 0.0
2018-Apr-16 14:56N 35°03' E 136°53'0 0.0
2018-Apr-16 14:26N 35°03' E 136°53'0 0.0
2018-Apr-16 13:56N 35°03' E 136°53'0 0.0
2018-Apr-16 13:29N 35°03' E 136°53'0 0.0
2018-Apr-16 12:56N 35°03' E 136°53'0 0.0
2018-Apr-16 12:29N 35°03' E 136°53'0 0.0
2018-Apr-16 11:56N 35°03' E 136°53'0 0.0
2018-Apr-16 11:29N 35°03' E 136°53'0 0.0
2018-Apr-16 10:59N 35°03' E 136°53'0 0.0
2018-Apr-16 10:26N 35°03' E 136°53'0 0.0
2018-Apr-16 09:56N 35°03' E 136°53'0 0.0
2018-Apr-16 09:26N 35°03' E 136°53'0 0.0
2018-Apr-16 08:56N 35°03' E 136°53'0 0.0
2018-Apr-16 08:26N 35°03' E 136°53'0 0.0
2018-Apr-16 07:56N 35°03' E 136°53'0 0.0
2018-Apr-16 07:26N 35°03' E 136°53'0 0.0
2018-Apr-16 06:56N 35°03' E 136°53'0 0.0
2018-Apr-16 06:26N 35°03' E 136°53'0 0.0
2018-Apr-16 05:59N 35°03' E 136°53'0 0.0
2018-Apr-16 05:23N 35°03' E 136°53'0 0.0
2018-Apr-16 04:56N 35°03' E 136°53'0 0.0
2018-Apr-16 04:29N 35°03' E 136°53'0 0.0
2018-Apr-16 03:56N 35°03' E 136°53'0 0.0
2018-Apr-16 03:26N 35°03' E 136°53'0 0.0
2018-Apr-16 02:56N 35°03' E 136°53'0 0.0
2018-Apr-16 02:26N 35°03' E 136°53'0 0.0
2018-Apr-16 01:56N 35°03' E 136°53'0 0.0
2018-Apr-16 01:26N 35°03' E 136°53'0 0.0
2018-Apr-16 00:56N 35°03' E 136°53'0 0.0
2018-Apr-16 00:26N 35°03' E 136°53'0 0.0
2018-Apr-15 23:56N 35°03' E 136°53'0 0.0
2018-Apr-15 23:26N 35°03' E 136°53'0 0.0
2018-Apr-15 22:59N 35°03' E 136°53'0 0.0
2018-Apr-15 22:26N 35°03' E 136°53'0 0.0
2018-Apr-15 21:56N 35°03' E 136°53'0 0.0
2018-Apr-15 21:29N 35°03' E 136°53'0 0.0
2018-Apr-15 20:56N 35°03' E 136°53'0 0.0
2018-Apr-15 20:26N 35°03' E 136°53'0 0.0
2018-Apr-15 19:59N 35°03' E 136°53'0 0.0
2018-Apr-15 19:26N 35°03' E 136°53'0 0.0
2018-Apr-15 18:56N 35°03' E 136°53'0 0.0
2018-Apr-15 18:26N 35°03' E 136°53'0 0.0
2018-Apr-15 17:56N 35°03' E 136°53'0 0.0
2018-Apr-15 17:26N 35°03' E 136°53'0 0.0
2018-Apr-15 16:56N 35°03' E 136°53'0 0.0
2018-Apr-15 16:26N 35°03' E 136°53'0 0.0
2018-Apr-15 15:56N 35°03' E 136°53'0 0.0
2018-Apr-15 15:26N 35°03' E 136°53'0 0.0
2018-Apr-15 14:50N 35°03' E 136°53'0 0.0
2018-Apr-15 14:26N 35°03' E 136°53'0 0.0
2018-Apr-15 13:56N 35°03' E 136°53'0 0.0
2018-Apr-15 13:26N 35°03' E 136°53'0 0.0
2018-Apr-15 12:56N 35°03' E 136°53'0 0.0
2018-Apr-15 12:26N 35°03' E 136°53'0 0.0
2018-Apr-15 11:56N 35°03' E 136°53'0 0.0
2018-Apr-15 11:26N 35°03' E 136°53'0 0.0
2018-Apr-15 10:56N 35°03' E 136°53'0 0.0
2018-Apr-15 10:26N 35°03' E 136°53'0 0.0
2018-Apr-15 09:56N 35°03' E 136°53'0 0.0
2018-Apr-15 09:26N 35°03' E 136°53'0 0.0
2018-Apr-15 08:56N 35°03' E 136°53'0 0.0
2018-Apr-15 08:26N 35°03' E 136°53'0 0.0
2018-Apr-15 07:50N 35°03' E 136°53'0 0.0
2018-Apr-15 07:26N 35°03' E 136°53'0 0.0
2018-Apr-15 06:56N 35°03' E 136°53'0 0.0
2018-Apr-15 06:26N 35°03' E 136°53'0 0.0
2018-Apr-15 05:56N 35°03' E 136°53'0 0.0
2018-Apr-15 05:14N 35°03' E 136°53'0 0.0
2018-Apr-15 04:56N 35°03' E 136°53'0 0.0
2018-Apr-15 04:29N 35°03' E 136°53'0 0.0
2018-Apr-15 03:56N 35°03' E 136°53'0 0.0
2018-Apr-15 03:26N 35°03' E 136°53'0 0.0
2018-Apr-15 02:56N 35°03' E 136°53'0 0.0
2018-Apr-15 02:26N 35°03' E 136°53'0 0.0
2018-Apr-15 01:56N 35°03' E 136°53'0 0.0
2018-Apr-15 01:26N 35°03' E 136°53'0 0.0
2018-Apr-15 00:56N 35°03' E 136°53'0 0.0
2018-Apr-15 00:26N 35°03' E 136°53'0 0.0
2018-Apr-14 23:56N 35°03' E 136°53'0 0.0
2018-Apr-14 23:26N 35°03' E 136°53'0 0.0
2018-Apr-14 22:56N 35°03' E 136°53'0 0.0
2018-Apr-14 22:26N 35°03' E 136°53'0 0.0
2018-Apr-14 21:56N 35°03' E 136°53'0 0.0
2018-Apr-14 21:26N 35°03' E 136°53'0 0.0
2018-Apr-14 20:56N 35°03' E 136°53'0 0.0
2018-Apr-14 20:26N 35°03' E 136°53'0 0.0
2018-Apr-14 19:56N 35°03' E 136°53'0 0.0
2018-Apr-14 19:26N 35°03' E 136°53'0 0.0
2018-Apr-14 18:56N 35°03' E 136°53'0 0.0
2018-Apr-14 18:26N 35°03' E 136°53'0 0.0
2018-Apr-14 17:56N 35°03' E 136°53'0 0.0
2018-Apr-14 17:26N 35°03' E 136°53'0 0.0
2018-Apr-14 16:59N 35°03' E 136°53'0 0.0
2018-Apr-14 16:26N 35°03' E 136°53'0 0.0
2018-Apr-14 15:56N 35°03' E 136°53'0 0.0
2018-Apr-14 15:20N 35°03' E 136°53'0 0.0
2018-Apr-14 14:56N 35°03' E 136°53'0 0.0
2018-Apr-14 14:26N 35°03' E 136°53'0 0.0
2018-Apr-14 13:56N 35°03' E 136°53'0 0.0
2018-Apr-14 13:29N 35°03' E 136°53'0 0.0
2018-Apr-14 12:56N 35°03' E 136°53'0 0.0
2018-Apr-14 12:29N 35°03' E 136°53'0 0.0
2018-Apr-14 11:56N 35°03' E 136°53'0 0.0
2018-Apr-14 11:26N 35°03' E 136°53'0 0.0
2018-Apr-14 10:56N 35°03' E 136°53'0 0.0
2018-Apr-14 10:29N 35°03' E 136°53'0 0.0
2018-Apr-14 09:56N 35°03' E 136°53'0 0.0
2018-Apr-14 09:26N 35°03' E 136°53'0 0.0
2018-Apr-14 08:56N 35°03' E 136°53'0 0.0
2018-Apr-14 08:26N 35°03' E 136°53'0 0.0
2018-Apr-14 07:56N 35°03' E 136°53'0 0.0
2018-Apr-14 07:26N 35°03' E 136°53'0 0.0
2018-Apr-14 06:56N 35°03' E 136°53'0 0.0
2018-Apr-14 06:26N 35°03' E 136°53'0 0.0
2018-Apr-14 05:56N 35°03' E 136°53'0 0.0
2018-Apr-14 05:26N 35°03' E 136°53'0 0.0
2018-Apr-14 04:56N 35°03' E 136°53'0 0.0
2018-Apr-14 04:26N 35°03' E 136°53'0 0.0
2018-Apr-14 03:56N 35°03' E 136°53'0 0.0
2018-Apr-14 03:29N 35°03' E 136°53'0 0.0
2018-Apr-14 02:56N 35°03' E 136°53'0 0.0
2018-Apr-14 02:26N 35°03' E 136°53'0 0.0
2018-Apr-14 01:56N 35°03' E 136°53'0 0.0
2018-Apr-14 01:29N 35°03' E 136°53'0 0.0
2018-Apr-14 00:59N 35°03' E 136°53'0 0.0
2018-Apr-14 00:26N 35°03' E 136°53'0 0.0
2018-Apr-13 23:59N 35°03' E 136°53'0 0.0
2018-Apr-13 23:26N 35°03' E 136°53'0 0.0
2018-Apr-13 22:56N 35°03' E 136°53'0 0.0
2018-Apr-13 22:26N 35°03' E 136°53'0 0.0
2018-Apr-13 21:56N 35°03' E 136°53'0 0.1
2018-Apr-13 21:30N 35°03' E 136°53'3 7.0
2018-Apr-13 21:00N 35°00' E 136°50'5 9.8
2018-Apr-13 20:30N 34°56' E 136°46'3 5.1
2018-Apr-13 20:00N 34°54' E 136°45'0 0.1
2018-Apr-13 19:28N 34°54' E 136°45'0 0.0
2018-Apr-13 18:58N 34°54' E 136°45'0 0.0
2018-Apr-13 18:28N 34°54' E 136°45'0 0.0
2018-Apr-13 17:58N 34°54' E 136°45'0 0.0
2018-Apr-13 17:28N 34°54' E 136°45'0 0.0
2018-Apr-13 16:58N 34°54' E 136°45'0 0.1
2018-Apr-13 16:28N 34°54' E 136°45'0 0.1
2018-Apr-13 15:58N 34°54' E 136°45'0 0.0
2018-Apr-13 15:28N 34°54' E 136°45'0 0.1
2018-Apr-13 14:58N 34°54' E 136°45'0 0.0
2018-Apr-13 14:28N 34°54' E 136°45'0 0.1
2018-Apr-13 13:58N 34°54' E 136°45'0 0.1
2018-Apr-13 13:28N 34°54' E 136°45'0 0.1
2018-Apr-13 12:58N 34°54' E 136°45'0 0.0
2018-Apr-13 12:28N 34°54' E 136°45'0 0.0
2018-Apr-13 11:58N 34°54' E 136°45'0 0.1
2018-Apr-13 11:28N 34°54' E 136°45'0 0.0
2018-Apr-13 10:58N 34°54' E 136°45'0 0.0
2018-Apr-13 10:28N 34°54' E 136°45'0 0.0
2018-Apr-13 09:58N 34°54' E 136°45'0 0.0
2018-Apr-13 09:28N 34°54' E 136°45'0 0.0
2018-Apr-13 08:58N 34°54' E 136°45'0 0.0
2018-Apr-13 08:28N 34°54' E 136°45'0 0.0
2018-Apr-13 07:58N 34°54' E 136°45'0 0.0
2018-Apr-13 07:28N 34°54' E 136°45'0 0.0
2018-Apr-13 06:52N 34°54' E 136°45'0 0.0
2018-Apr-13 06:28N 34°54' E 136°45'0 0.0
2018-Apr-13 05:58N 34°54' E 136°45'0 0.0
2018-Apr-13 05:28N 34°54' E 136°45'0 0.0
2018-Apr-13 04:58N 34°54' E 136°45'0 0.0
2018-Apr-13 04:28N 34°54' E 136°45'0 0.0
2018-Apr-13 03:58N 34°54' E 136°45'0 0.0
2018-Apr-13 03:28N 34°54' E 136°45'0 0.1
2018-Apr-13 02:58N 34°54' E 136°45'0 0.0
2018-Apr-13 02:28N 34°54' E 136°45'0 0.1
2018-Apr-13 01:58N 34°54' E 136°45'0 0.0
2018-Apr-13 01:28N 34°54' E 136°45'0 0.1
2018-Apr-13 00:58N 34°54' E 136°45'0 0.0
2018-Apr-13 00:28N 34°54' E 136°45'0 0.0
2018-Apr-12 23:58N 34°54' E 136°45'0 0.0
2018-Apr-12 23:28N 34°54' E 136°45'0 0.0
2018-Apr-12 22:58N 34°54' E 136°45'0 0.0
2018-Apr-12 22:28N 34°54' E 136°45'0 0.0
2018-Apr-12 21:58N 34°54' E 136°45'0 0.1
2018-Apr-12 21:28N 34°54' E 136°45'0 0.0
2018-Apr-12 20:58N 34°54' E 136°45'0 0.0
2018-Apr-12 20:28N 34°54' E 136°45'0 0.0
2018-Apr-12 19:58N 34°54' E 136°45'0 0.0
2018-Apr-12 19:28N 34°54' E 136°45'0 0.1
2018-Apr-12 18:58N 34°54' E 136°45'0 0.0
2018-Apr-12 18:28N 34°54' E 136°45'0 0.0
2018-Apr-12 17:52N 34°54' E 136°45'0 0.0
2018-Apr-12 17:28N 34°54' E 136°45'0 0.0
2018-Apr-12 16:58N 34°54' E 136°45'0 0.0
2018-Apr-12 16:28N 34°54' E 136°45'0 0.0
2018-Apr-12 15:58N 34°54' E 136°45'0 0.1
2018-Apr-12 15:28N 34°54' E 136°45'0 0.0
2018-Apr-12 14:58N 34°54' E 136°45'0 0.1
2018-Apr-12 14:28N 34°54' E 136°45'0 0.0
2018-Apr-12 13:52N 34°54' E 136°45'0 0.0
2018-Apr-12 13:28N 34°54' E 136°45'0 0.0
2018-Apr-12 12:58N 34°54' E 136°45'0 0.0
2018-Apr-12 12:28N 34°54' E 136°45'0 0.0
2018-Apr-12 11:52N 34°54' E 136°45'0 0.0
2018-Apr-12 11:28N 34°54' E 136°45'0 0.0
2018-Apr-12 10:58N 34°54' E 136°45'0 0.0
2018-Apr-12 10:28N 34°54' E 136°45'0 0.0
2018-Apr-12 09:58N 34°54' E 136°45'0 0.0
2018-Apr-12 09:28N 34°54' E 136°45'0 0.0
2018-Apr-12 08:58N 34°54' E 136°45'0 0.0
2018-Apr-12 08:28N 34°54' E 136°45'0 0.0
2018-Apr-12 07:58N 34°54' E 136°45'0 0.0
2018-Apr-12 07:28N 34°54' E 136°45'0 0.0
2018-Apr-12 06:58N 34°54' E 136°45'0 0.0
2018-Apr-12 06:28N 34°54' E 136°45'0 0.0
2018-Apr-12 05:58N 34°54' E 136°45'0 0.1
2018-Apr-12 05:28N 34°54' E 136°45'0 0.0
2018-Apr-12 04:58N 34°54' E 136°45'0 0.0
2018-Apr-12 04:28N 34°54' E 136°45'0 0.1
2018-Apr-12 03:58N 34°54' E 136°45'0 0.1
2018-Apr-12 03:28N 34°54' E 136°45'0 0.2
2018-Apr-12 02:58N 34°54' E 136°45'0 0.0
2018-Apr-12 02:28N 34°54' E 136°45'0 0.1
2018-Apr-12 01:58N 34°54' E 136°45'0 0.0
2018-Apr-12 01:28N 34°54' E 136°45'0 0.0
2018-Apr-12 00:58N 34°54' E 136°45'0 0.1
2018-Apr-12 00:28N 34°54' E 136°45'0 0.0
2018-Apr-11 23:52N 34°54' E 136°45'0 0.0
2018-Apr-11 23:28N 34°54' E 136°45'0 0.0
2018-Apr-11 22:58N 34°54' E 136°45'0 0.0
2018-Apr-11 22:28N 34°54' E 136°45'0 0.0
2018-Apr-11 21:58N 34°54' E 136°45'0 0.0
2018-Apr-11 21:22N 34°54' E 136°45'0 0.0
2018-Apr-11 20:58N 34°54' E 136°45'0 0.0
2018-Apr-11 20:28N 34°54' E 136°45'0 0.1
2018-Apr-11 19:58N 34°54' E 136°45'0 0.0
2018-Apr-11 19:28N 34°54' E 136°45'0 0.1
2018-Apr-11 18:58N 34°54' E 136°45'0 0.1
2018-Apr-11 18:28N 34°54' E 136°45'0 0.0
2018-Apr-11 17:58N 34°54' E 136°45'0 0.1
2018-Apr-11 17:28N 34°54' E 136°45'0 0.1
2018-Apr-11 16:58N 34°54' E 136°45'0 0.1
2018-Apr-11 16:28N 34°54' E 136°45'0 0.0
2018-Apr-11 15:58N 34°54' E 136°45'0 0.3
2018-Apr-11 15:28N 34°54' E 136°45'0 0.0
2018-Apr-11 14:58N 34°54' E 136°45'0 0.1
2018-Apr-11 14:10N 34°54' E 136°45'0 0.0
2018-Apr-11 13:58N 34°54' E 136°45'0 0.0
2018-Apr-11 13:28N 34°54' E 136°45'0 0.0
2018-Apr-11 12:52N 34°54' E 136°45'0 0.0
2018-Apr-11 12:28N 34°54' E 136°45'0 0.0
2018-Apr-11 11:58N 34°54' E 136°45'0 0.0
2018-Apr-11 11:28N 34°54' E 136°45'0 0.0
2018-Apr-11 10:58N 34°54' E 136°45'0 0.0
2018-Apr-11 10:28N 34°54' E 136°45'0 0.0
2018-Apr-11 09:58N 34°54' E 136°45'0 0.0
2018-Apr-11 09:16N 34°54' E 136°45'0 0.0
2018-Apr-11 08:58N 34°54' E 136°45'0 0.0
2018-Apr-11 08:28N 34°54' E 136°45'0 0.0
2018-Apr-11 07:58N 34°54' E 136°45'0 0.0
2018-Apr-11 07:28N 34°54' E 136°45'0 0.0
2018-Apr-11 06:58N 34°54' E 136°45'0 0.0
2018-Apr-11 06:28N 34°54' E 136°45'0 0.0
2018-Apr-11 05:58N 34°54' E 136°45'0 0.0
2018-Apr-11 05:16N 34°54' E 136°45'0 0.0
2018-Apr-11 04:58N 34°54' E 136°45'0 0.1
2018-Apr-11 04:28N 34°54' E 136°45'0 0.2
2018-Apr-11 03:58N 34°54' E 136°45'0 0.1
2018-Apr-11 03:28N 34°54' E 136°45'0 0.1
2018-Apr-11 02:58N 34°54' E 136°45'0 0.1
2018-Apr-11 02:28N 34°54' E 136°45'0 0.0
2018-Apr-11 01:58N 34°54' E 136°45'0 0.1
2018-Apr-11 01:28N 34°54' E 136°45'0 0.1
2018-Apr-11 00:58N 34°54' E 136°45'0 0.0
2018-Apr-11 00:25N 34°54' E 136°45'0 0.1
2018-Apr-10 23:58N 34°54' E 136°45'0 0.1
2018-Apr-10 23:28N 34°54' E 136°45'0 0.0
2018-Apr-10 22:58N 34°54' E 136°45'0 0.2
2018-Apr-10 22:28N 34°54' E 136°45'0 0.0
2018-Apr-10 21:58N 34°54' E 136°45'0 0.0
2018-Apr-10 21:28N 34°54' E 136°45'0 0.0
2018-Apr-10 20:58N 34°54' E 136°45'0 0.1
2018-Apr-10 20:28N 34°54' E 136°45'0 0.1
2018-Apr-10 19:58N 34°54' E 136°45'0 0.0
2018-Apr-10 19:28N 34°54' E 136°45'0 0.0
2018-Apr-10 18:58N 34°54' E 136°45'0 0.0
2018-Apr-10 18:28N 34°54' E 136°45'0 0.0
2018-Apr-10 17:58N 34°54' E 136°45'0 0.0
2018-Apr-10 17:28N 34°54' E 136°45'0 0.1
2018-Apr-10 16:58N 34°54' E 136°45'0 0.0
2018-Apr-10 16:28N 34°54' E 136°45'0 0.0
2018-Apr-10 15:58N 34°54' E 136°45'0 0.0
2018-Apr-10 15:22N 34°54' E 136°45'0 0.0
2018-Apr-10 14:58N 34°54' E 136°45'0 0.0
2018-Apr-10 14:22N 34°54' E 136°45'0 0.0
2018-Apr-10 13:58N 34°54' E 136°45'0 0.0
2018-Apr-10 13:28N 34°54' E 136°45'0 0.0
2018-Apr-10 12:58N 34°54' E 136°45'0 0.0
2018-Apr-10 12:28N 34°54' E 136°45'0 0.0
2018-Apr-10 11:58N 34°54' E 136°45'0 0.0
2018-Apr-10 11:28N 34°54' E 136°45'0 0.1
2018-Apr-10 10:58N 34°54' E 136°45'0 0.1
2018-Apr-10 10:28N 34°54' E 136°45'0 0.1
2018-Apr-10 09:58N 34°54' E 136°45'0 0.0
2018-Apr-10 09:28N 34°54' E 136°45'0 0.1
2018-Apr-10 08:34N 34°54' E 136°45'0 0.1
2018-Apr-10 08:28N 34°54' E 136°45'0 0.0
2018-Apr-10 07:58N 34°54' E 136°45'0 0.0
2018-Apr-10 07:28N 34°54' E 136°45'0 0.1
2018-Apr-10 06:58N 34°54' E 136°45'0 0.1
2018-Apr-10 06:28N 34°54' E 136°45'0 0.0
2018-Apr-10 05:58N 34°54' E 136°45'0 0.0
2018-Apr-10 05:22N 34°54' E 136°45'0 0.0
2018-Apr-10 04:58N 34°54' E 136°45'0 0.1
2018-Apr-10 04:22N 34°54' E 136°45'0 0.0
2018-Apr-10 03:58N 34°54' E 136°45'0 0.0
2018-Apr-10 03:28N 34°54' E 136°45'0 0.0
2018-Apr-10 02:58N 34°54' E 136°45'0 0.1
2018-Apr-10 02:28N 34°54' E 136°45'0 0.1
2018-Apr-10 01:58N 34°54' E 136°45'0 0.0
2018-Apr-10 01:28N 34°54' E 136°45'0 0.0
2018-Apr-10 00:58N 34°54' E 136°45'0 0.0
2018-Apr-10 00:28N 34°54' E 136°45'0 0.1
2018-Apr-09 23:58N 34°54' E 136°45'0 0.0
2018-Apr-09 23:28N 34°54' E 136°45'0 0.0
2018-Apr-09 22:58N 34°54' E 136°45'0 0.0
2018-Apr-09 22:28N 34°54' E 136°45'0 0.0
2018-Apr-09 21:58N 34°54' E 136°45'0 0.0
2018-Apr-09 21:28N 34°54' E 136°45'0 0.0
2018-Apr-09 20:58N 34°54' E 136°45'0 0.0
2018-Apr-09 20:28N 34°54' E 136°45'0 0.0
2018-Apr-09 19:58N 34°54' E 136°45'0 0.0
2018-Apr-09 19:28N 34°54' E 136°45'0 0.0
2018-Apr-09 18:58N 34°54' E 136°45'0 0.1
2018-Apr-09 18:28N 34°54' E 136°45'0 0.1
2018-Apr-09 17:58N 34°54' E 136°45'0 0.1
2018-Apr-09 17:28N 34°54' E 136°45'0 0.0
2018-Apr-09 16:52N 34°54' E 136°45'0 0.1
2018-Apr-09 16:28N 34°54' E 136°45'0 0.0
2018-Apr-09 15:58N 34°54' E 136°45'0 0.0
2018-Apr-09 15:28N 34°54' E 136°45'0 0.0
2018-Apr-09 14:58N 34°54' E 136°45'0 0.0
2018-Apr-09 14:28N 34°54' E 136°45'0 0.1
2018-Apr-09 13:58N 34°54' E 136°45'0 0.0
2018-Apr-09 13:28N 34°54' E 136°45'0 0.0
2018-Apr-09 12:58N 34°54' E 136°45'0 0.0
2018-Apr-09 12:28N 34°54' E 136°45'0 0.0
2018-Apr-09 11:58N 34°54' E 136°45'0 0.1
2018-Apr-09 11:28N 34°54' E 136°45'0 0.0
2018-Apr-09 10:52N 34°54' E 136°45'0 0.0
2018-Apr-09 10:28N 34°54' E 136°45'0 0.0
2018-Apr-09 09:58N 34°54' E 136°45'0 0.1
2018-Apr-09 09:28N 34°54' E 136°45'0 0.1
2018-Apr-09 08:58N 34°54' E 136°45'0 0.0
2018-Apr-09 08:28N 34°54' E 136°45'0 0.0
2018-Apr-09 07:58N 34°54' E 136°45'0 0.0
2018-Apr-09 07:28N 34°54' E 136°45'0 0.1
2018-Apr-09 06:58N 34°54' E 136°45'0 0.1
2018-Apr-09 06:28N 34°54' E 136°45'0 0.0
2018-Apr-09 05:58N 34°54' E 136°45'0 0.0
2018-Apr-09 05:28N 34°54' E 136°45'0 0.0
2018-Apr-09 04:58N 34°54' E 136°45'0 0.1
2018-Apr-09 04:28N 34°54' E 136°45'0 0.2
2018-Apr-09 03:58N 34°54' E 136°45'0 0.0
2018-Apr-09 03:28N 34°54' E 136°45'0 0.0
2018-Apr-09 02:58N 34°54' E 136°45'0 0.0
2018-Apr-09 02:28N 34°54' E 136°45'0 0.1
2018-Apr-09 01:58N 34°54' E 136°45'0 0.0
2018-Apr-09 01:28N 34°54' E 136°45'0 0.0
2018-Apr-09 00:58N 34°54' E 136°45'0 0.0
2018-Apr-09 00:28N 34°54' E 136°45'0 0.0
2018-Apr-08 23:58N 34°54' E 136°45'0 0.0
2018-Apr-08 23:28N 34°54' E 136°45'0 0.0
2018-Apr-08 22:58N 34°54' E 136°45'0 0.0
2018-Apr-08 22:28N 34°54' E 136°45'0 0.0
2018-Apr-08 21:58N 34°54' E 136°45'0 0.0
2018-Apr-08 21:28N 34°54' E 136°45'0 0.0
2018-Apr-08 20:58N 34°54' E 136°45'0 0.1
2018-Apr-08 20:28N 34°54' E 136°45'0 0.0
2018-Apr-08 19:58N 34°54' E 136°45'0 0.0
2018-Apr-08 19:28N 34°54' E 136°45'0 0.1
2018-Apr-08 18:58N 34°54' E 136°45'0 0.0
2018-Apr-08 18:28N 34°54' E 136°45'0 0.0
2018-Apr-08 17:58N 34°54' E 136°45'0 0.0
2018-Apr-08 17:28N 34°54' E 136°45'0 0.0
2018-Apr-08 16:58N 34°54' E 136°45'0 0.0
2018-Apr-08 16:28N 34°54' E 136°45'0 0.0
2018-Apr-08 15:58N 34°54' E 136°45'0 0.0
2018-Apr-08 15:28N 34°54' E 136°45'0 0.0
2018-Apr-08 14:58N 34°54' E 136°45'0 0.0
2018-Apr-08 14:28N 34°54' E 136°45'0 0.0
2018-Apr-08 13:58N 34°54' E 136°45'0 0.0
2018-Apr-08 13:28N 34°54' E 136°45'0 0.1
2018-Apr-08 12:58N 34°54' E 136°45'  
Track history (hours):
 
Tides and Currents Weather Stations Pressure Air Temp Water Temp Dewpoint Dewpoint Depression Visibility Wind Speed Wind Dir Waves Ship Positions

Century Pearl

Last reported at 2018-Apr-18 12:31 UTC. Time now 2018-Apr-22 16:17 UTC.
Position N 33°42' E 136°25'.

Length 137 m; draft 7.8 m.

Type: Cargo ship. MMSI: 370126000.

Date/timePositionNaut miles runAvg speedWind from/ knotsBaromVisibWave heightAir tempDewpointWater temp
2018-Apr-18 12:31N 33°42' E 136°25'110.8
2018-Apr-18 12:25N 33°43' E 136°25'1410.2
2018-Apr-18 11:04N 33°53' E 136°37'110.1
2018-Apr-18 10:55N 33°54' E 136°38'5 9.9
2018-Apr-18 10:26N 33°57' E 136°42'5 9.7
2018-Apr-18 09:58N 34°01' E 136°46'36 8.8
2018-Apr-18 05:54N 34°35' E 136°58'5 9.9
2018-Apr-18 05:25N 34°38' E 136°53'410.5
2018-Apr-18 05:00N 34°41' E 136°49'610.8
2018-Apr-18 04:29N 34°46' E 136°47'510.8
2018-Apr-18 04:00N 34°51' E 136°46'510.8
2018-Apr-18 03:30N 34°56' E 136°47'610.9
2018-Apr-18 03:00N 35°01' E 136°50'2 4.9
2018-Apr-18 02:30N 35°03' E 136°53'0 0.0
2018-Apr-18 01:56N 35°03' E 136°53'0 0.0
2018-Apr-18 01:26N 35°03' E 136°53'0 0.0
2018-Apr-18 00:56N 35°03' E 136°53'0 0.0
2018-Apr-18 00:29N 35°03' E 136°53'0 0.0
2018-Apr-17 23:56N 35°03' E 136°53'0 0.0
2018-Apr-17 23:29N 35°03' E 136°53'0 0.0
2018-Apr-17 22:56N 35°03' E 136°53'0 0.0
2018-Apr-17 22:20N 35°03' E 136°53'0 0.0
2018-Apr-17 21:56N 35°03' E 136°53'0 0.0
2018-Apr-17 21:26N 35°03' E 136°53'0 0.0
2018-Apr-17 20:50N 35°03' E 136°53'0 0.0
2018-Apr-17 20:26N 35°03' E 136°53'0 0.0
2018-Apr-17 19:56N 35°03' E 136°53'0 0.0
2018-Apr-17 19:26N 35°03' E 136°53'0 0.0
2018-Apr-17 18:56N 35°03' E 136°53'0 0.0
2018-Apr-17 18:26N 35°03' E 136°53'0 0.0
2018-Apr-17 17:56N 35°03' E 136°53'0 0.0
2018-Apr-17 17:26N 35°03' E 136°53'0 0.0
2018-Apr-17 16:56N 35°03' E 136°53'0 0.0
2018-Apr-17 16:26N 35°03' E 136°53'0 0.0
2018-Apr-17 15:56N 35°03' E 136°53'0 0.0
2018-Apr-17 15:26N 35°03' E 136°53'0 0.0
2018-Apr-17 14:56N 35°03' E 136°53'0 0.0
2018-Apr-17 14:26N 35°03' E 136°53'0 0.0
2018-Apr-17 13:59N 35°03' E 136°53'0 0.0
2018-Apr-17 13:26N 35°03' E 136°53'0 0.0
2018-Apr-17 12:56N 35°03' E 136°53'0 0.0
2018-Apr-17 12:26N 35°03' E 136°53'0 0.0
2018-Apr-17 11:50N 35°03' E 136°53'0 0.0
2018-Apr-17 11:26N 35°03' E 136°53'0 0.0
2018-Apr-17 10:32N 35°03' E 136°53'0 0.0
2018-Apr-17 10:26N 35°03' E 136°53'0 0.0
2018-Apr-17 09:56N 35°03' E 136°53'0 0.0
2018-Apr-17 09:29N 35°03' E 136°53'0 0.0
2018-Apr-17 08:59N 35°03' E 136°53'0 0.0
2018-Apr-17 08:26N 35°03' E 136°53'0 0.0
2018-Apr-17 07:56N 35°03' E 136°53'0 0.0
2018-Apr-17 07:26N 35°03' E 136°53'0 0.0
2018-Apr-17 06:56N 35°03' E 136°53'0 0.0
2018-Apr-17 06:26N 35°03' E 136°53'0 0.0
2018-Apr-17 05:56N 35°03' E 136°53'0 0.0
2018-Apr-17 05:26N 35°03' E 136°53'0 0.0
2018-Apr-17 04:59N 35°03' E 136°53'0 0.0
2018-Apr-17 04:26N 35°03' E 136°53'0 0.0
2018-Apr-17 03:56N 35°03' E 136°53'0 0.0
2018-Apr-17 03:29N 35°03' E 136°53'0 0.0
2018-Apr-17 02:56N 35°03' E 136°53'0 0.0
2018-Apr-17 02:26N 35°03' E 136°53'0 0.0
2018-Apr-17 01:59N 35°03' E 136°53'0 0.0
2018-Apr-17 01:26N 35°03' E 136°53'0 0.0
2018-Apr-17 00:56N 35°03' E 136°53'0 0.0
2018-Apr-17 00:26N 35°03' E 136°53'0 0.0
2018-Apr-16 23:56N 35°03' E 136°53'0 0.0
2018-Apr-16 23:26N 35°03' E 136°53'0 0.0
2018-Apr-16 22:56N 35°03' E 136°53'0 0.0
2018-Apr-16 22:26N 35°03' E 136°53'0 0.0
2018-Apr-16 21:56N 35°03' E 136°53'0 0.0
2018-Apr-16 21:26N 35°03' E 136°53'0 0.0
2018-Apr-16 20:56N 35°03' E 136°53'0 0.0
2018-Apr-16 20:26N 35°03' E 136°53'0 0.0
2018-Apr-16 19:56N 35°03' E 136°53'0 0.0
2018-Apr-16 19:26N 35°03' E 136°53'0 0.0
2018-Apr-16 18:56N 35°03' E 136°53'0 0.0
2018-Apr-16 18:26N 35°03' E 136°53'0 0.0
2018-Apr-16 17:56N 35°03' E 136°53'0 0.0
2018-Apr-16 17:26N 35°03' E 136°53'0 0.0
2018-Apr-16 16:56N 35°03' E 136°53'0 0.0
2018-Apr-16 16:26N 35°03' E 136°53'0 0.0
2018-Apr-16 15:56N 35°03' E 136°53'0 0.0
2018-Apr-16 15:26N 35°03' E 136°53'0 0.0
2018-Apr-16 14:56N 35°03' E 136°53'0 0.0
2018-Apr-16 14:26N 35°03' E 136°53'0 0.0
2018-Apr-16 13:56N 35°03' E 136°53'0 0.0
2018-Apr-16 13:29N 35°03' E 136°53'0 0.0
2018-Apr-16 12:56N 35°03' E 136°53'0 0.0
2018-Apr-16 12:29N 35°03' E 136°53'0 0.0
2018-Apr-16 11:56N 35°03' E 136°53'0 0.0
2018-Apr-16 11:29N 35°03' E 136°53'0 0.0
2018-Apr-16 10:59N 35°03' E 136°53'0 0.0
2018-Apr-16 10:26N 35°03' E 136°53'0 0.0
2018-Apr-16 09:56N 35°03' E 136°53'0 0.0
2018-Apr-16 09:26N 35°03' E 136°53'0 0.0
2018-Apr-16 08:56N 35°03' E 136°53'0 0.0
2018-Apr-16 08:26N 35°03' E 136°53'0 0.0
2018-Apr-16 07:56N 35°03' E 136°53'0 0.0
2018-Apr-16 07:26N 35°03' E 136°53'0 0.0
2018-Apr-16 06:56N 35°03' E 136°53'0 0.0
2018-Apr-16 06:26N 35°03' E 136°53'0 0.0
2018-Apr-16 05:59N 35°03' E 136°53'0 0.0
2018-Apr-16 05:23N 35°03' E 136°53'0 0.0
2018-Apr-16 04:56N 35°03' E 136°53'0 0.0
2018-Apr-16 04:29N 35°03' E 136°53'0 0.0
2018-Apr-16 03:56N 35°03' E 136°53'0 0.0
2018-Apr-16 03:26N 35°03' E 136°53'0 0.0
2018-Apr-16 02:56N 35°03' E 136°53'0 0.0
2018-Apr-16 02:26N 35°03' E 136°53'0 0.0
2018-Apr-16 01:56N 35°03' E 136°53'0 0.0
2018-Apr-16 01:26N 35°03' E 136°53'0 0.0
2018-Apr-16 00:56N 35°03' E 136°53'0 0.0
2018-Apr-16 00:26N 35°03' E 136°53'0 0.0
2018-Apr-15 23:56N 35°03' E 136°53'0 0.0
2018-Apr-15 23:26N 35°03' E 136°53'0 0.0
2018-Apr-15 22:59N 35°03' E 136°53'0 0.0
2018-Apr-15 22:26N 35°03' E 136°53'0 0.0
2018-Apr-15 21:56N 35°03' E 136°53'0 0.0
2018-Apr-15 21:29N 35°03' E 136°53'0 0.0
2018-Apr-15 20:56N 35°03' E 136°53'0 0.0
2018-Apr-15 20:26N 35°03' E 136°53'0 0.0
2018-Apr-15 19:59N 35°03' E 136°53'0 0.0
2018-Apr-15 19:26N 35°03' E 136°53'0 0.0
2018-Apr-15 18:56N 35°03' E 136°53'0 0.0
2018-Apr-15 18:26N 35°03' E 136°53'0 0.0
2018-Apr-15 17:56N 35°03' E 136°53'0 0.0
2018-Apr-15 17:26N 35°03' E 136°53'0 0.0
2018-Apr-15 16:56N 35°03' E 136°53'0 0.0
2018-Apr-15 16:26N 35°03' E 136°53'0 0.0
2018-Apr-15 15:56N 35°03' E 136°53'0 0.0
2018-Apr-15 15:26N 35°03' E 136°53'0 0.0
2018-Apr-15 14:50N 35°03' E 136°53'0 0.0
2018-Apr-15 14:26N 35°03' E 136°53'0 0.0
2018-Apr-15 13:56N 35°03' E 136°53'0 0.0
2018-Apr-15 13:26N 35°03' E 136°53'0 0.0
2018-Apr-15 12:56N 35°03' E 136°53'0 0.0
2018-Apr-15 12:26N 35°03' E 136°53'0 0.0
2018-Apr-15 11:56N 35°03' E 136°53'0 0.0
2018-Apr-15 11:26N 35°03' E 136°53'0 0.0
2018-Apr-15 10:56N 35°03' E 136°53'0 0.0
2018-Apr-15 10:26N 35°03' E 136°53'0 0.0
2018-Apr-15 09:56N 35°03' E 136°53'0 0.0
2018-Apr-15 09:26N 35°03' E 136°53'0 0.0
2018-Apr-15 08:56N 35°03' E 136°53'0 0.0
2018-Apr-15 08:26N 35°03' E 136°53'0 0.0
2018-Apr-15 07:50N 35°03' E 136°53'0 0.0
2018-Apr-15 07:26N 35°03' E 136°53'0 0.0
2018-Apr-15 06:56N 35°03' E 136°53'0 0.0
2018-Apr-15 06:26N 35°03' E 136°53'0 0.0
2018-Apr-15 05:56N 35°03' E 136°53'0 0.0
2018-Apr-15 05:14N 35°03' E 136°53'0 0.0
2018-Apr-15 04:56N 35°03' E 136°53'0 0.0
2018-Apr-15 04:29N 35°03' E 136°53'0 0.0
2018-Apr-15 03:56N 35°03' E 136°53'0 0.0
2018-Apr-15 03:26N 35°03' E 136°53'0 0.0
2018-Apr-15 02:56N 35°03' E 136°53'0 0.0
2018-Apr-15 02:26N 35°03' E 136°53'0 0.0
2018-Apr-15 01:56N 35°03' E 136°53'0 0.0
2018-Apr-15 01:26N 35°03' E 136°53'0 0.0
2018-Apr-15 00:56N 35°03' E 136°53'0 0.0
2018-Apr-15 00:26N 35°03' E 136°53'0 0.0
2018-Apr-14 23:56N 35°03' E 136°53'0 0.0
2018-Apr-14 23:26N 35°03' E 136°53'0 0.0
2018-Apr-14 22:56N 35°03' E 136°53'0 0.0
2018-Apr-14 22:26N 35°03' E 136°53'0 0.0
2018-Apr-14 21:56N 35°03' E 136°53'0 0.0
2018-Apr-14 21:26N 35°03' E 136°53'0 0.0
2018-Apr-14 20:56N 35°03' E 136°53'0 0.0
2018-Apr-14 20:26N 35°03' E 136°53'0 0.0
2018-Apr-14 19:56N 35°03' E 136°53'0 0.0
2018-Apr-14 19:26N 35°03' E 136°53'0 0.0
2018-Apr-14 18:56N 35°03' E 136°53'0 0.0
2018-Apr-14 18:26N 35°03' E 136°53'0 0.0
2018-Apr-14 17:56N 35°03' E 136°53'0 0.0
2018-Apr-14 17:26N 35°03' E 136°53'0 0.0
2018-Apr-14 16:59N 35°03' E 136°53'0 0.0
2018-Apr-14 16:26N 35°03' E 136°53'0 0.0
2018-Apr-14 15:56N 35°03' E 136°53'0 0.0
2018-Apr-14 15:20N 35°03' E 136°53'0 0.0
2018-Apr-14 14:56N 35°03' E 136°53'0 0.0
2018-Apr-14 14:26N 35°03' E 136°53'0 0.0
2018-Apr-14 13:56N 35°03' E 136°53'0 0.0
2018-Apr-14 13:29N 35°03' E 136°53'0 0.0
2018-Apr-14 12:56N 35°03' E 136°53'0 0.0
2018-Apr-14 12:29N 35°03' E 136°53'0 0.0
2018-Apr-14 11:56N 35°03' E 136°53'0 0.0
2018-Apr-14 11:26N 35°03' E 136°53'0 0.0
2018-Apr-14 10:56N 35°03' E 136°53'0 0.0
2018-Apr-14 10:29N 35°03' E 136°53'0 0.0
2018-Apr-14 09:56N 35°03' E 136°53'0 0.0
2018-Apr-14 09:26N 35°03' E 136°53'0 0.0
2018-Apr-14 08:56N 35°03' E 136°53'0 0.0
2018-Apr-14 08:26N 35°03' E 136°53'0 0.0
2018-Apr-14 07:56N 35°03' E 136°53'0 0.0
2018-Apr-14 07:26N 35°03' E 136°53'0 0.0
2018-Apr-14 06:56N 35°03' E 136°53'0 0.0
2018-Apr-14 06:26N 35°03' E 136°53'0 0.0
2018-Apr-14 05:56N 35°03' E 136°53'0 0.0
2018-Apr-14 05:26N 35°03' E 136°53'0 0.0
2018-Apr-14 04:56N 35°03' E 136°53'0 0.0
2018-Apr-14 04:26N 35°03' E 136°53'0 0.0
2018-Apr-14 03:56N 35°03' E 136°53'0 0.0
2018-Apr-14 03:29N 35°03' E 136°53'0 0.0
2018-Apr-14 02:56N 35°03' E 136°53'0 0.0
2018-Apr-14 02:26N 35°03' E 136°53'0 0.0
2018-Apr-14 01:56N 35°03' E 136°53'0 0.0
2018-Apr-14 01:29N 35°03' E 136°53'0 0.0
2018-Apr-14 00:59N 35°03' E 136°53'0 0.0
2018-Apr-14 00:26N 35°03' E 136°53'0 0.0
2018-Apr-13 23:59N 35°03' E 136°53'0 0.0
2018-Apr-13 23:26N 35°03' E 136°53'0 0.0
2018-Apr-13 22:56N 35°03' E 136°53'0 0.0
2018-Apr-13 22:26N 35°03' E 136°53'0 0.0
2018-Apr-13 21:56N 35°03' E 136°53'0 0.1
2018-Apr-13 21:30N 35°03' E 136°53'3 7.0
2018-Apr-13 21:00N 35°00' E 136°50'5 9.8
2018-Apr-13 20:30N 34°56' E 136°46'3 5.1
2018-Apr-13 20:00N 34°54' E 136°45'0 0.1
2018-Apr-13 19:28N 34°54' E 136°45'0 0.0
2018-Apr-13 18:58N 34°54' E 136°45'0 0.0
2018-Apr-13 18:28N 34°54' E 136°45'0 0.0
2018-Apr-13 17:58N 34°54' E 136°45'0 0.0
2018-Apr-13 17:28N 34°54' E 136°45'0 0.0
2018-Apr-13 16:58N 34°54' E 136°45'0 0.1
2018-Apr-13 16:28N 34°54' E 136°45'0 0.1
2018-Apr-13 15:58N 34°54' E 136°45'0 0.0
2018-Apr-13 15:28N 34°54' E 136°45'0 0.1
2018-Apr-13 14:58N 34°54' E 136°45'0 0.0
2018-Apr-13 14:28N 34°54' E 136°45'0 0.1
2018-Apr-13 13:58N 34°54' E 136°45'0 0.1
2018-Apr-13 13:28N 34°54' E 136°45'0 0.1
2018-Apr-13 12:58N 34°54' E 136°45'0 0.0
2018-Apr-13 12:28N 34°54' E 136°45'0 0.0
2018-Apr-13 11:58N 34°54' E 136°45'0 0.1
2018-Apr-13 11:28N 34°54' E 136°45'0 0.0
2018-Apr-13 10:58N 34°54' E 136°45'0 0.0
2018-Apr-13 10:28N 34°54' E 136°45'0 0.0
2018-Apr-13 09:58N 34°54' E 136°45'0 0.0
2018-Apr-13 09:28N 34°54' E 136°45'0 0.0
2018-Apr-13 08:58N 34°54' E 136°45'0 0.0
2018-Apr-13 08:28N 34°54' E 136°45'0 0.0
2018-Apr-13 07:58N 34°54' E 136°45'0 0.0
2018-Apr-13 07:28N 34°54' E 136°45'0 0.0
2018-Apr-13 06:52N 34°54' E 136°45'0 0.0
2018-Apr-13 06:28N 34°54' E 136°45'0 0.0
2018-Apr-13 05:58N 34°54' E 136°45'0 0.0
2018-Apr-13 05:28N 34°54' E 136°45'0 0.0
2018-Apr-13 04:58N 34°54' E 136°45'0 0.0
2018-Apr-13 04:28N 34°54' E 136°45'0 0.0
2018-Apr-13 03:58N 34°54' E 136°45'0 0.0
2018-Apr-13 03:28N 34°54' E 136°45'0 0.1
2018-Apr-13 02:58N 34°54' E 136°45'0 0.0
2018-Apr-13 02:28N 34°54' E 136°45'0 0.1
2018-Apr-13 01:58N 34°54' E 136°45'0 0.0
2018-Apr-13 01:28N 34°54' E 136°45'0 0.1
2018-Apr-13 00:58N 34°54' E 136°45'0 0.0
2018-Apr-13 00:28N 34°54' E 136°45'0 0.0
2018-Apr-12 23:58N 34°54' E 136°45'0 0.0
2018-Apr-12 23:28N 34°54' E 136°45'0 0.0
2018-Apr-12 22:58N 34°54' E 136°45'0 0.0
2018-Apr-12 22:28N 34°54' E 136°45'0 0.0
2018-Apr-12 21:58N 34°54' E 136°45'0 0.1
2018-Apr-12 21:28N 34°54' E 136°45'0 0.0
2018-Apr-12 20:58N 34°54' E 136°45'0 0.0
2018-Apr-12 20:28N 34°54' E 136°45'0 0.0
2018-Apr-12 19:58N 34°54' E 136°45'0 0.0
2018-Apr-12 19:28N 34°54' E 136°45'0 0.1
2018-Apr-12 18:58N 34°54' E 136°45'0 0.0
2018-Apr-12 18:28N 34°54' E 136°45'0 0.0
2018-Apr-12 17:52N 34°54' E 136°45'0 0.0
2018-Apr-12 17:28N 34°54' E 136°45'0 0.0
2018-Apr-12 16:58N 34°54' E 136°45'0 0.0
2018-Apr-12 16:28N 34°54' E 136°45'0 0.0
2018-Apr-12 15:58N 34°54' E 136°45'0 0.1
2018-Apr-12 15:28N 34°54' E 136°45'0 0.0
2018-Apr-12 14:58N 34°54' E 136°45'0 0.1
2018-Apr-12 14:28N 34°54' E 136°45'0 0.0
2018-Apr-12 13:52N 34°54' E 136°45'0 0.0
2018-Apr-12 13:28N 34°54' E 136°45'0 0.0
2018-Apr-12 12:58N 34°54' E 136°45'0 0.0
2018-Apr-12 12:28N 34°54' E 136°45'0 0.0
2018-Apr-12 11:52N 34°54' E 136°45'0 0.0
2018-Apr-12 11:28N 34°54' E 136°45'0 0.0
2018-Apr-12 10:58N 34°54' E 136°45'0 0.0
2018-Apr-12 10:28N 34°54' E 136°45'0 0.0
2018-Apr-12 09:58N 34°54' E 136°45'0 0.0
2018-Apr-12 09:28N 34°54' E 136°45'0 0.0
2018-Apr-12 08:58N 34°54' E 136°45'0 0.0
2018-Apr-12 08:28N 34°54' E 136°45'0 0.0
2018-Apr-12 07:58N 34°54' E 136°45'0 0.0
2018-Apr-12 07:28N 34°54' E 136°45'0 0.0
2018-Apr-12 06:58N 34°54' E 136°45'0 0.0
2018-Apr-12 06:28N 34°54' E 136°45'0 0.0
2018-Apr-12 05:58N 34°54' E 136°45'0 0.1
2018-Apr-12 05:28N 34°54' E 136°45'0 0.0
2018-Apr-12 04:58N 34°54' E 136°45'0 0.0
2018-Apr-12 04:28N 34°54' E 136°45'0 0.1
2018-Apr-12 03:58N 34°54' E 136°45'0 0.1
2018-Apr-12 03:28N 34°54' E 136°45'0 0.2
2018-Apr-12 02:58N 34°54' E 136°45'0 0.0
2018-Apr-12 02:28N 34°54' E 136°45'0 0.1
2018-Apr-12 01:58N 34°54' E 136°45'0 0.0
2018-Apr-12 01:28N 34°54' E 136°45'0 0.0
2018-Apr-12 00:58N 34°54' E 136°45'0 0.1
2018-Apr-12 00:28N 34°54' E 136°45'0 0.0
2018-Apr-11 23:52N 34°54' E 136°45'0 0.0
2018-Apr-11 23:28N 34°54' E 136°45'0 0.0
2018-Apr-11 22:58N 34°54' E 136°45'0 0.0
2018-Apr-11 22:28N 34°54' E 136°45'0 0.0
2018-Apr-11 21:58N 34°54' E 136°45'0 0.0
2018-Apr-11 21:22N 34°54' E 136°45'0 0.0
2018-Apr-11 20:58N 34°54' E 136°45'0 0.0
2018-Apr-11 20:28N 34°54' E 136°45'0 0.1
2018-Apr-11 19:58N 34°54' E 136°45'0 0.0
2018-Apr-11 19:28N 34°54' E 136°45'0 0.1
2018-Apr-11 18:58N 34°54' E 136°45'0 0.1
2018-Apr-11 18:28N 34°54' E 136°45'0 0.0
2018-Apr-11 17:58N 34°54' E 136°45'0 0.1
2018-Apr-11 17:28N 34°54' E 136°45'0 0.1
2018-Apr-11 16:58N 34°54' E 136°45'0 0.1
2018-Apr-11 16:28N 34°54' E 136°45'0 0.0
2018-Apr-11 15:58N 34°54' E 136°45'0 0.3
2018-Apr-11 15:28N 34°54' E 136°45'0 0.0
2018-Apr-11 14:58N 34°54' E 136°45'0 0.1
2018-Apr-11 14:10N 34°54' E 136°45'0 0.0
2018-Apr-11 13:58N 34°54' E 136°45'0 0.0
2018-Apr-11 13:28N 34°54' E 136°45'0 0.0
2018-Apr-11 12:52N 34°54' E 136°45'0 0.0
2018-Apr-11 12:28N 34°54' E 136°45'0 0.0
2018-Apr-11 11:58N 34°54' E 136°45'0 0.0
2018-Apr-11 11:28N 34°54' E 136°45'0 0.0
2018-Apr-11 10:58N 34°54' E 136°45'0 0.0
2018-Apr-11 10:28N 34°54' E 136°45'0 0.0
2018-Apr-11 09:58N 34°54' E 136°45'0 0.0
2018-Apr-11 09:16N 34°54' E 136°45'0 0.0
2018-Apr-11 08:58N 34°54' E 136°45'0 0.0
2018-Apr-11 08:28N 34°54' E 136°45'0 0.0
2018-Apr-11 07:58N 34°54' E 136°45'0 0.0
2018-Apr-11 07:28N 34°54' E 136°45'0 0.0
2018-Apr-11 06:58N 34°54' E 136°45'0 0.0
2018-Apr-11 06:28N 34°54' E 136°45'0 0.0
2018-Apr-11 05:58N 34°54' E 136°45'0 0.0
2018-Apr-11 05:16N 34°54' E 136°45'0 0.0
2018-Apr-11 04:58N 34°54' E 136°45'0 0.1
2018-Apr-11 04:28N 34°54' E 136°45'0 0.2
2018-Apr-11 03:58N 34°54' E 136°45'0 0.1
2018-Apr-11 03:28N 34°54' E 136°45'0 0.1
2018-Apr-11 02:58N 34°54' E 136°45'0 0.1
2018-Apr-11 02:28N 34°54' E 136°45'0 0.0
2018-Apr-11 01:58N 34°54' E 136°45'0 0.1
2018-Apr-11 01:28N 34°54' E 136°45'0 0.1
2018-Apr-11 00:58N 34°54' E 136°45'0 0.0
2018-Apr-11 00:25N 34°54' E 136°45'0 0.1
2018-Apr-10 23:58N 34°54' E 136°45'0 0.1
2018-Apr-10 23:28N 34°54' E 136°45'0 0.0
2018-Apr-10 22:58N 34°54' E 136°45'0 0.2
2018-Apr-10 22:28N 34°54' E 136°45'0 0.0
2018-Apr-10 21:58N 34°54' E 136°45'0 0.0
2018-Apr-10 21:28N 34°54' E 136°45'0 0.0
2018-Apr-10 20:58N 34°54' E 136°45'0 0.1
2018-Apr-10 20:28N 34°54' E 136°45'0 0.1
2018-Apr-10 19:58N 34°54' E 136°45'0 0.0
2018-Apr-10 19:28N 34°54' E 136°45'0 0.0
2018-Apr-10 18:58N 34°54' E 136°45'0 0.0
2018-Apr-10 18:28N 34°54' E 136°45'0 0.0
2018-Apr-10 17:58N 34°54' E 136°45'0 0.0
2018-Apr-10 17:28N 34°54' E 136°45'0 0.1
2018-Apr-10 16:58N 34°54' E 136°45'0 0.0
2018-Apr-10 16:28N 34°54' E 136°45'0 0.0
2018-Apr-10 15:58N 34°54' E 136°45'0 0.0
2018-Apr-10 15:22N 34°54' E 136°45'0 0.0
2018-Apr-10 14:58N 34°54' E 136°45'0 0.0
2018-Apr-10 14:22N 34°54' E 136°45'0 0.0
2018-Apr-10 13:58N 34°54' E 136°45'0 0.0
2018-Apr-10 13:28N 34°54' E 136°45'0 0.0
2018-Apr-10 12:58N 34°54' E 136°45'0 0.0
2018-Apr-10 12:28N 34°54' E 136°45'0 0.0
2018-Apr-10 11:58N 34°54' E 136°45'0 0.0
2018-Apr-10 11:28N 34°54' E 136°45'0 0.1
2018-Apr-10 10:58N 34°54' E 136°45'0 0.1
2018-Apr-10 10:28N 34°54' E 136°45'0 0.1
2018-Apr-10 09:58N 34°54' E 136°45'0 0.0
2018-Apr-10 09:28N 34°54' E 136°45'0 0.1
2018-Apr-10 08:34N 34°54' E 136°45'0 0.1
2018-Apr-10 08:28N 34°54' E 136°45'0 0.0
2018-Apr-10 07:58N 34°54' E 136°45'0 0.0
2018-Apr-10 07:28N 34°54' E 136°45'0 0.1
2018-Apr-10 06:58N 34°54' E 136°45'0 0.1
2018-Apr-10 06:28N 34°54' E 136°45'0 0.0
2018-Apr-10 05:58N 34°54' E 136°45'0 0.0
2018-Apr-10 05:22N 34°54' E 136°45'0 0.0
2018-Apr-10 04:58N 34°54' E 136°45'0 0.1
2018-Apr-10 04:22N 34°54' E 136°45'0 0.0
2018-Apr-10 03:58N 34°54' E 136°45'0 0.0
2018-Apr-10 03:28N 34°54' E 136°45'0 0.0
2018-Apr-10 02:58N 34°54' E 136°45'0 0.1
2018-Apr-10 02:28N 34°54' E 136°45'0 0.1
2018-Apr-10 01:58N 34°54' E 136°45'0 0.0
2018-Apr-10 01:28N 34°54' E 136°45'0 0.0
2018-Apr-10 00:58N 34°54' E 136°45'0 0.0
2018-Apr-10 00:28N 34°54' E 136°45'0 0.1
2018-Apr-09 23:58N 34°54' E 136°45'0 0.0
2018-Apr-09 23:28N 34°54' E 136°45'0 0.0
2018-Apr-09 22:58N 34°54' E 136°45'0 0.0
2018-Apr-09 22:28N 34°54' E 136°45'0 0.0
2018-Apr-09 21:58N 34°54' E 136°45'0 0.0
2018-Apr-09 21:28N 34°54' E 136°45'0 0.0
2018-Apr-09 20:58N 34°54' E 136°45'0 0.0
2018-Apr-09 20:28N 34°54' E 136°45'0 0.0
2018-Apr-09 19:58N 34°54' E 136°45'0 0.0
2018-Apr-09 19:28N 34°54' E 136°45'0 0.0
2018-Apr-09 18:58N 34°54' E 136°45'0 0.1
2018-Apr-09 18:28N 34°54' E 136°45'0 0.1
2018-Apr-09 17:58N 34°54' E 136°45'0 0.1
2018-Apr-09 17:28N 34°54' E 136°45'0 0.0
2018-Apr-09 16:52N 34°54' E 136°45'0 0.1
2018-Apr-09 16:28N 34°54' E 136°45'0 0.0
2018-Apr-09 15:58N 34°54' E 136°45'0 0.0
2018-Apr-09 15:28N 34°54' E 136°45'0 0.0
2018-Apr-09 14:58N 34°54' E 136°45'0 0.0
2018-Apr-09 14:28N 34°54' E 136°45'0 0.1
2018-Apr-09 13:58N 34°54' E 136°45'0 0.0
2018-Apr-09 13:28N 34°54' E 136°45'0 0.0
2018-Apr-09 12:58N 34°54' E 136°45'0 0.0
2018-Apr-09 12:28N 34°54' E 136°45'0 0.0
2018-Apr-09 11:58N 34°54' E 136°45'0 0.1
2018-Apr-09 11:28N 34°54' E 136°45'0 0.0
2018-Apr-09 10:52N 34°54' E 136°45'0 0.0
2018-Apr-09 10:28N 34°54' E 136°45'0 0.0
2018-Apr-09 09:58N 34°54' E 136°45'0 0.1
2018-Apr-09 09:28N 34°54' E 136°45'0 0.1
2018-Apr-09 08:58N 34°54' E 136°45'0 0.0
2018-Apr-09 08:28N 34°54' E 136°45'0 0.0
2018-Apr-09 07:58N 34°54' E 136°45'0 0.0
2018-Apr-09 07:28N 34°54' E 136°45'0 0.1
2018-Apr-09 06:58N 34°54' E 136°45'0 0.1
2018-Apr-09 06:28N 34°54' E 136°45'0 0.0
2018-Apr-09 05:58N 34°54' E 136°45'0 0.0
2018-Apr-09 05:28N 34°54' E 136°45'0 0.0
2018-Apr-09 04:58N 34°54' E 136°45'0 0.1
2018-Apr-09 04:28N 34°54' E 136°45'0 0.2
2018-Apr-09 03:58N 34°54' E 136°45'0 0.0
2018-Apr-09 03:28N 34°54' E 136°45'0 0.0
2018-Apr-09 02:58N 34°54' E 136°45'0 0.0
2018-Apr-09 02:28N 34°54' E 136°45'0 0.1
2018-Apr-09 01:58N 34°54' E 136°45'0 0.0
2018-Apr-09 01:28N 34°54' E 136°45'0 0.0
2018-Apr-09 00:58N 34°54' E 136°45'0 0.0
2018-Apr-09 00:28N 34°54' E 136°45'0 0.0
2018-Apr-08 23:58N 34°54' E 136°45'0 0.0
2018-Apr-08 23:28N 34°54' E 136°45'0 0.0
2018-Apr-08 22:58N 34°54' E 136°45'0 0.0
2018-Apr-08 22:28N 34°54' E 136°45'0 0.0
2018-Apr-08 21:58N 34°54' E 136°45'0 0.0
2018-Apr-08 21:28N 34°54' E 136°45'0 0.0
2018-Apr-08 20:58N 34°54' E 136°45'0 0.1
2018-Apr-08 20:28N 34°54' E 136°45'0 0.0
2018-Apr-08 19:58N 34°54' E 136°45'0 0.0
2018-Apr-08 19:28N 34°54' E 136°45'0 0.1
2018-Apr-08 18:58N 34°54' E 136°45'0 0.0
2018-Apr-08 18:28N 34°54' E 136°45'0 0.0
2018-Apr-08 17:58N 34°54' E 136°45'0 0.0
2018-Apr-08 17:28N 34°54' E 136°45'0 0.0
2018-Apr-08 16:58N 34°54' E 136°45'0 0.0
2018-Apr-08 16:28N 34°54' E 136°45'0 0.0
2018-Apr-08 15:58N 34°54' E 136°45'0 0.0
2018-Apr-08 15:28N 34°54' E 136°45'0 0.0
2018-Apr-08 14:58N 34°54' E 136°45'0 0.0
2018-Apr-08 14:28N 34°54' E 136°45'0 0.0
2018-Apr-08 13:58N 34°54' E 136°45'0 0.0
2018-Apr-08 13:28N 34°54' E 136°45'0 0.1
2018-Apr-08 12:58N 34°54' E 136°45'  

Dump ship's entire track history